Terminal Aerodrome Forecast
Issued by NWS

Home | Current Version | Previous Version | Text Only | Print | Product List | Glossary Off
Versions: 1 2 3 4 5 6 7 8 9 10 11 12 13

000
FTUS43 KMPX 200500
TAFAXN
TAF
KAXN 200535Z 2006/2106 29009KT P6SM SKC
     FM201400 30011G16KT P6SM FEW020 SCT040
     FM210000 23004KT P6SM SKC=

USA.gov is the U.S. government's official web portal to all federal, state and local government web resources and services.